createdAt,value
2019-04-29T00:01:31.782Z,7.13
2019-04-29T00:06:39.578Z,7.07
2019-04-29T00:11:47.277Z,6.74
2019-04-29T00:16:55.238Z,6.98
2019-04-29T00:22:03.166Z,7.07
2019-04-29T00:27:11.198Z,6.79
2019-04-29T00:32:19.058Z,6.57
2019-04-29T00:37:27.915Z,6.87
2019-04-29T00:42:35.909Z,6.93
2019-04-29T00:47:43.790Z,7.14
2019-04-29T00:52:51.664Z,6.85
2019-04-29T00:57:59.740Z,6.83
2019-04-29T01:03:08.679Z,7.00
2019-04-29T01:08:17.494Z,6.82
2019-04-29T01:13:25.340Z,7.03
2019-04-29T01:18:33.117Z,6.72
2019-04-29T01:23:41.258Z,6.79
2019-04-29T01:28:49.556Z,6.53
2019-04-29T01:33:57.341Z,6.85
2019-04-29T01:39:05.251Z,6.59
2019-04-29T01:44:13.018Z,6.75
2019-04-29T01:49:20.795Z,6.87
2019-04-29T01:54:29.966Z,7.25
2019-04-29T01:59:38.594Z,7.25
2019-04-29T02:04:46.294Z,7.03
2019-04-29T02:09:54.042Z,7.14
2019-04-29T02:15:01.792Z,6.83
2019-04-29T02:20:10.003Z,6.83
2019-04-29T02:25:18.366Z,6.82
2019-04-29T02:30:26.287Z,6.89
2019-04-29T02:35:34.441Z,7.10
2019-04-29T02:40:42.330Z,7.56
2019-04-29T02:45:50.075Z,7.27
2019-04-29T02:50:57.901Z,7.55
2019-04-29T02:56:05.651Z,7.45
2019-04-29T03:01:13.370Z,7.66
2019-04-29T03:06:24.156Z,7.41
2019-04-29T03:11:21.921Z,7.55
2019-04-29T03:16:29.722Z,8.14
2019-04-29T03:21:37.614Z,8.45
2019-04-29T03:26:45.558Z,8.59
2019-04-29T03:31:53.304Z,9.02
2019-04-29T03:37:01.032Z,8.38
2019-04-29T03:42:09.939Z,9.85
2019-04-29T03:47:18.954Z,9.62
2019-04-29T03:52:25.365Z,9.04
2019-04-29T03:57:41.439Z,9.81
2019-04-29T04:02:39.322Z,9.66
2019-04-29T04:07:49.319Z,9.58
2019-04-29T04:12:58.457Z,9.57
2019-04-29T04:18:06.163Z,9.76
2019-04-29T04:23:13.915Z,9.94
2019-04-29T04:28:21.643Z,10.46
2019-04-29T04:33:29.449Z,9.55
2019-04-29T04:38:37.263Z,10.32
2019-04-29T04:43:45.277Z,10.71
2019-04-29T04:48:53.131Z,9.91
2019-04-29T04:54:00.888Z,10.34
2019-04-29T04:59:08.778Z,10.19
2019-04-29T05:04:17.573Z,10.44
2019-04-29T05:09:25.458Z,11.27
2019-04-29T05:14:33.444Z,11.42
2019-04-29T05:19:41.352Z,11.61
2019-04-29T05:24:49.457Z,10.57
2019-04-29T05:29:57.462Z,10.47
2019-04-29T05:35:05.650Z,12.03
2019-04-29T05:40:14.435Z,11.82
2019-04-29T05:45:22.195Z,11.26
2019-04-29T05:50:30.378Z,11.54
2019-04-29T05:55:39.414Z,11.93
2019-04-29T06:00:48.379Z,11.65
2019-04-29T06:05:56.189Z,12.55
2019-04-29T06:11:04.333Z,11.54
2019-04-29T06:16:15.994Z,13.54
2019-04-29T06:21:19.876Z,11.51
2019-04-29T06:26:27.911Z,12.44
2019-04-29T06:31:35.808Z,13.13
2019-04-29T06:36:43.622Z,14.28
2019-04-29T06:41:53.330Z,13.11
2019-04-29T06:47:01.162Z,13.33
2019-04-29T06:52:08.879Z,12.64
2019-04-29T06:57:16.870Z,12.67
2019-04-29T07:02:24.649Z,12.90
2019-04-29T07:07:32.433Z,12.22
2019-04-29T07:12:42.731Z,12.40
2019-04-29T07:17:47.957Z,12.56
2019-04-29T07:22:56.436Z,12.65
2019-04-29T07:28:03.187Z,12.61
2019-04-29T07:33:13.313Z,12.58
2019-04-29T07:38:13.859Z,13.14
2019-04-29T07:43:11.657Z,12.96
2019-04-29T07:48:19.842Z,14.48
2019-04-29T07:53:35.977Z,15.19
2019-04-29T07:58:35.980Z,16.77
2019-04-29T08:03:43.790Z,15.92
2019-04-29T08:08:55.076Z,17.02
2019-04-29T08:14:00.355Z,19.89
2019-04-29T08:19:08.165Z,19.87
2019-04-29T08:24:17.042Z,19.60
2019-04-29T08:29:23.911Z,22.04
2019-04-29T08:34:31.642Z,23.27
2019-04-29T08:39:39.537Z,23.16
2019-04-29T08:44:47.578Z,22.14
2019-04-29T08:49:55.496Z,21.43
2019-04-29T08:55:03.254Z,22.89
2019-04-29T09:00:11.022Z,23.22
2019-04-29T09:05:18.776Z,23.85
2019-04-29T09:10:26.728Z,22.62
2019-04-29T09:15:35.606Z,22.17
2019-04-29T09:20:44.502Z,23.62
2019-04-29T09:26:02.369Z,22.24
2019-04-29T09:30:59.655Z,22.44
2019-04-29T09:36:09.615Z,22.24
2019-04-29T09:41:14.822Z,21.43
2019-04-29T09:46:22.658Z,21.03
2019-04-29T09:51:30.780Z,20.95
2019-04-29T09:56:38.982Z,19.31
2019-04-29T10:01:50.566Z,19.94
2019-04-29T10:06:54.214Z,19.70
2019-04-29T10:12:02.033Z,17.93
2019-04-29T10:17:11.279Z,17.79
2019-04-29T10:22:17.139Z,18.07
2019-04-29T10:27:24.982Z,16.55
2019-04-29T10:32:32.759Z,15.63
2019-04-29T10:37:41.516Z,16.69
2019-04-29T10:42:49.371Z,16.69
2019-04-29T10:47:57.142Z,17.02
2019-04-29T10:53:05.216Z,15.83
2019-04-29T10:58:13.501Z,16.69
2019-04-29T11:03:25.100Z,16.58
2019-04-29T11:08:28.826Z,17.88
2019-04-29T11:13:45.646Z,16.26
2019-04-29T11:18:44.383Z,15.22
2019-04-29T11:23:54.726Z,15.71
2019-04-29T11:29:14.829Z,14.34
2019-04-29T11:34:05.540Z,15.47
2019-04-29T11:39:13.819Z,13.87
2019-04-29T11:44:21.881Z,11.93
2019-04-29T11:49:28.021Z,12.02
2019-04-29T11:54:37.464Z,10.97
2019-04-29T11:59:46.350Z,11.18
2019-04-29T12:04:54.114Z,10.41
2019-04-29T12:10:06.093Z,8.83
2019-04-29T12:15:13.661Z,6.96
2019-04-29T12:20:18.995Z,5.70
2019-04-29T12:25:29.264Z,5.44
2019-04-29T12:30:36.391Z,5.04
2019-04-29T12:35:51.806Z,5.52
2019-04-29T12:40:55.178Z,5.29
2019-04-29T12:45:53.604Z,5.22
2019-04-29T12:50:58.380Z,5.35
2019-04-29T12:56:07.186Z,6.04
2019-04-29T13:01:14.264Z,6.19
2019-04-29T13:06:24.073Z,6.59
2019-04-29T13:11:37.536Z,7.05
2019-04-29T13:16:36.844Z,6.68
2019-04-29T13:21:44.670Z,6.56
2019-04-29T13:26:52.399Z,7.39
2019-04-29T13:32:01.796Z,7.12
2019-04-29T13:37:12.257Z,7.28
2019-04-29T13:42:15.797Z,7.55
2019-04-29T13:47:28.487Z,8.36
2019-04-29T13:52:31.289Z,7.85
2019-04-29T13:57:39.539Z,8.87
2019-04-29T14:02:58.377Z,8.87
2019-04-29T14:07:54.842Z,10.65
2019-04-29T14:13:10.869Z,11.25
2019-04-29T14:18:11.634Z,12.67
2019-04-29T14:23:18.501Z,13.13
2019-04-29T14:28:26.519Z,14.58
2019-04-29T14:33:34.399Z,15.54
2019-04-29T14:38:42.646Z,15.38
2019-04-29T14:43:50.543Z,17.33
2019-04-29T14:48:59.594Z,18.07
2019-04-29T14:54:05.839Z,19.29
2019-04-29T14:59:12.249Z,20.25
2019-04-29T15:04:19.988Z,21.39
2019-04-29T15:09:27.756Z,22.74
2019-04-29T15:14:35.969Z,22.71
2019-04-29T15:19:48.607Z,23.64
2019-04-29T15:24:51.183Z,26.23
2019-04-29T15:29:59.174Z,25.16
2019-04-29T15:35:07.340Z,25.58
2019-04-29T15:40:15.482Z,27.18
2019-04-29T15:45:23.313Z,24.78
2019-04-29T15:50:37.224Z,26.49
2019-04-29T15:55:41.450Z,26.51
2019-04-29T16:00:50.280Z,26.11
2019-04-29T16:06:19.965Z,26.10
2019-04-29T16:11:05.521Z,25.26
2019-04-29T16:16:13.479Z,24.98
2019-04-29T16:21:22.678Z,25.15
2019-04-29T16:26:32.081Z,26.93
2019-04-29T16:31:37.994Z,26.34
2019-04-29T16:36:49.998Z,26.76
2019-04-29T16:41:58.473Z,25.72
2019-04-29T16:46:56.072Z,25.56
2019-04-29T16:52:04.027Z,26.36
2019-04-29T16:57:12.279Z,27.10
2019-04-29T17:02:20.301Z,29.66
2019-04-29T17:07:28.089Z,26.55
2019-04-29T17:12:37.998Z,25.89
2019-04-29T17:17:44.965Z,23.72
2019-04-29T17:22:56.729Z,23.81
2019-04-29T17:27:55.681Z,23.20
2019-04-29T17:33:04.271Z,25.21
2019-04-29T17:38:10.998Z,28.17
2019-04-29T17:43:18.782Z,26.67
2019-04-29T17:48:27.861Z,28.19
2019-04-29T17:53:35.750Z,28.93
2019-04-29T17:58:43.934Z,27.55
2019-04-29T18:03:51.054Z,26.63
2019-04-29T18:09:00.081Z,28.08
2019-04-29T18:14:07.871Z,26.68
2019-04-29T18:19:17.374Z,26.88
2019-04-29T18:24:23.288Z,26.91
2019-04-29T18:29:36.403Z,27.68
2019-04-29T18:34:38.766Z,27.93
2019-04-29T18:39:46.962Z,29.03
2019-04-29T18:44:59.968Z,27.73
2019-04-29T18:50:02.741Z,28.01
2019-04-29T18:55:10.977Z,27.63
2019-04-29T19:00:19.888Z,26.53
2019-04-29T19:05:32.375Z,27.32
2019-04-29T19:10:37.239Z,23.84
2019-04-29T19:15:46.981Z,22.97
2019-04-29T19:20:52.675Z,22.53
2019-04-29T19:25:57.152Z,24.13
2019-04-29T19:31:09.445Z,24.31
2019-04-29T19:36:17.173Z,24.76
2019-04-29T19:41:45.459Z,23.58
2019-04-29T19:46:24.206Z,26.92
2019-04-29T19:51:28.763Z,26.27
2019-04-29T19:56:36.954Z,26.61
2019-04-29T20:01:48.648Z,28.04
2019-04-29T20:06:57.104Z,28.23
2019-04-29T20:11:59.977Z,27.66
2019-04-29T20:17:12.954Z,27.38
2019-04-29T20:22:22.732Z,26.62
2019-04-29T20:27:21.732Z,25.92
2019-04-29T20:32:31.762Z,26.35
2019-04-29T20:37:37.127Z,26.14
2019-04-29T20:42:47.788Z,25.75
2019-04-29T20:47:56.164Z,26.15
2019-04-29T20:53:05.504Z,25.93
2019-04-29T20:58:03.763Z,26.10
2019-04-29T21:03:09.596Z,26.05
2019-04-29T21:08:19.120Z,25.41
2019-04-29T21:13:25.735Z,25.92
2019-04-29T21:18:32.007Z,26.11
2019-04-29T21:23:40.093Z,26.82
2019-04-29T21:28:48.266Z,25.76
2019-04-29T21:33:58.862Z,26.28
2019-04-29T21:39:06.110Z,27.02
2019-04-29T21:44:11.161Z,25.99
2019-04-29T21:49:19.278Z,26.73
2019-04-29T21:54:27.447Z,27.25
2019-04-29T21:59:35.780Z,26.77
2019-04-29T22:04:44.953Z,28.05
2019-04-29T22:09:50.979Z,28.06
2019-04-29T22:14:59.534Z,28.50
2019-04-29T22:20:07.730Z,27.68
2019-04-29T22:25:15.753Z,27.71
2019-04-29T22:30:22.820Z,26.64
2019-04-29T22:35:32.816Z,28.16
2019-04-29T22:40:41.111Z,28.81
2019-04-29T22:45:47.295Z,26.86
2019-04-29T22:50:55.669Z,29.23
2019-04-29T22:56:03.643Z,28.76
2019-04-29T23:01:11.983Z,28.96
2019-04-29T23:06:21.417Z,28.92
2019-04-29T23:11:29.333Z,28.74
2019-04-29T23:16:38.789Z,27.52
2019-04-29T23:21:47.253Z,27.67
2019-04-29T23:26:54.897Z,27.91
2019-04-29T23:32:06.790Z,27.83
2019-04-29T23:37:09.530Z,28.37
2019-04-29T23:42:17.378Z,28.29
2019-04-29T23:47:26.298Z,28.19
2019-04-29T23:52:35.933Z,27.87
2019-04-29T23:57:41.713Z,28.48
